South Canaan, Pennsylvania
Current Conditions -  °F | °C
As of 4:54 PM on Thursday 27 Nov 2014 (Local Time) from KAVP Reporting Station
Scattered Clouds Scattered Clouds  
Wind Chill: 21°   Ceiling: Unl
Heat Index: 31°   Visibility: 10mi
Dew Point: 21°   Wind: 13mph
Humidity: 67%   Direction: 280°W
Pressure: 30.01"   Gusts: NA
Location:  41.51°N, 75.41°W
Report Text: KAVP 272154Z 28011KT 10SM SCT050 M01/M06 A3001 RMK AO2 SLP171 T10061061
Loading
Personal Weather Stations






























Interactive Weather Map New forecast layout! Learn more

10-Day Weather Forecast

Advertisements
Track Severe Weather on mobile